createdAt,value
2018-12-10T00:01:34.857Z,0.77
2018-12-10T00:04:04.161Z,1.33
2018-12-10T00:06:39.738Z,0.70
2018-12-10T00:09:09.824Z,0.57
2018-12-10T00:11:42.501Z,0.60
2018-12-10T00:14:11.526Z,0.60
2018-12-10T00:16:46.013Z,2.27
2018-12-10T00:19:14.996Z,0.70
2018-12-10T00:21:51.671Z,0.67
2018-12-10T00:24:20.879Z,0.70
2018-12-10T00:26:50.624Z,1.47
2018-12-10T00:29:19.919Z,0.93
2018-12-10T00:31:53.506Z,0.43
2018-12-10T00:34:22.479Z,1.00
2018-12-10T00:36:57.543Z,1.00
2018-12-10T00:39:26.640Z,0.50
2018-12-10T00:42:03.440Z,0.50
2018-12-10T00:44:32.560Z,0.47
2018-12-10T00:47:05.498Z,0.50
2018-12-10T00:49:35.027Z,0.80
2018-12-10T00:52:06.237Z,0.63
2018-12-10T00:54:35.258Z,0.80
2018-12-10T00:57:13.219Z,0.47
2018-12-10T00:59:42.873Z,0.70
2018-12-10T01:02:12.399Z,0.70
2018-12-10T01:04:41.850Z,0.40
2018-12-10T01:07:14.244Z,0.50
2018-12-10T01:09:43.254Z,0.30
2018-12-10T01:12:19.660Z,0.30
2018-12-10T01:14:49.379Z,0.50
2018-12-10T01:17:19.179Z,0.63
2018-12-10T01:19:48.617Z,0.50
2018-12-10T01:22:21.226Z,0.50
2018-12-10T01:24:50.619Z,0.40
2018-12-10T01:27:24.094Z,0.30
2018-12-10T01:29:53.559Z,0.47
2018-12-10T01:32:26.515Z,0.43
2018-12-10T01:34:56.037Z,1.37
2018-12-10T01:37:29.515Z,1.20
2018-12-10T01:39:59.221Z,0.70
2018-12-10T01:42:31.259Z,0.50
2018-12-10T01:45:02.059Z,0.50
2018-12-10T01:47:35.360Z,0.70
2018-12-10T01:50:05.279Z,0.67
2018-12-10T01:52:36.198Z,0.60
2018-12-10T01:55:05.894Z,0.43
2018-12-10T01:57:38.701Z,0.87
2018-12-10T02:00:08.503Z,0.50
2018-12-10T02:02:44.716Z,0.50
2018-12-10T02:05:14.329Z,0.60
2018-12-10T02:07:44.582Z,0.63
2018-12-10T02:10:13.830Z,1.00
2018-12-10T02:12:49.651Z,0.70
2018-12-10T02:15:18.842Z,1.07
2018-12-10T02:17:49.807Z,0.50
2018-12-10T02:20:19.277Z,0.50
2018-12-10T02:22:57.855Z,1.00
2018-12-10T02:25:26.955Z,0.63
2018-12-10T02:27:56.030Z,0.57
2018-12-10T02:30:25.850Z,0.37
2018-12-10T02:33:02.869Z,0.60
2018-12-10T02:35:31.782Z,0.50
2018-12-10T02:38:03.114Z,0.63
2018-12-10T02:40:32.348Z,0.70
2018-12-10T02:43:09.534Z,0.40
2018-12-10T02:45:38.737Z,0.50
2018-12-10T02:48:09.704Z,0.50
2018-12-10T02:50:39.532Z,0.60
2018-12-10T02:53:11.669Z,0.57
2018-12-10T02:55:41.208Z,0.60
2018-12-10T02:58:14.474Z,0.50
2018-12-10T03:00:43.472Z,0.60
2018-12-10T03:03:16.465Z,0.70
2018-12-10T03:05:45.730Z,0.70
2018-12-10T03:08:18.489Z,0.90
2018-12-10T03:10:47.512Z,0.70
2018-12-10T03:13:20.092Z,0.97
2018-12-10T03:15:49.327Z,0.90
2018-12-10T03:18:22.999Z,1.20
2018-12-10T03:20:52.953Z,1.20
2018-12-10T03:23:26.501Z,2.00
2018-12-10T03:25:55.579Z,1.80
2018-12-10T03:28:32.051Z,1.50
2018-12-10T03:31:01.462Z,1.60
2018-12-10T03:33:30.699Z,1.83
2018-12-10T03:36:00.208Z,2.17
2018-12-10T03:38:33.478Z,3.27
2018-12-10T03:41:02.641Z,2.77
2018-12-10T03:43:36.365Z,2.47
2018-12-10T03:46:05.592Z,2.00
2018-12-10T03:48:38.751Z,2.30
2018-12-10T03:51:07.740Z,2.00
2018-12-10T03:53:40.956Z,1.90
2018-12-10T03:56:10.076Z,2.40
2018-12-10T03:58:43.408Z,1.97
2018-12-10T04:01:12.442Z,2.20
2018-12-10T04:03:48.212Z,1.33
2018-12-10T04:06:17.873Z,1.57
2018-12-10T04:08:51.153Z,2.10
2018-12-10T04:11:20.149Z,2.00
2018-12-10T04:13:56.407Z,1.30
2018-12-10T04:16:25.405Z,1.60
2018-12-10T04:18:57.434Z,1.37
2018-12-10T04:21:26.319Z,1.93
2018-12-10T04:23:59.779Z,1.73
2018-12-10T04:26:29.007Z,2.10
2018-12-10T04:29:01.404Z,1.83
2018-12-10T04:31:30.758Z,1.50
2018-12-10T04:34:03.789Z,1.63
2018-12-10T04:36:32.795Z,2.00
2018-12-10T04:39:06.444Z,1.63
2018-12-10T04:41:35.420Z,1.83
2018-12-10T04:44:09.487Z,2.27
2018-12-10T04:46:38.725Z,1.63
2018-12-10T04:49:12.886Z,1.70
2018-12-10T04:51:41.819Z,2.17
2018-12-10T04:54:15.244Z,2.33
2018-12-10T04:56:45.023Z,1.57
2018-12-10T04:59:21.456Z,1.20
2018-12-10T05:01:50.412Z,1.83
2018-12-10T05:04:22.737Z,1.47
2018-12-10T05:06:51.772Z,1.30
2018-12-10T05:09:25.182Z,1.10
2018-12-10T05:11:54.287Z,1.30
2018-12-10T05:14:25.392Z,1.40
2018-12-10T05:16:54.638Z,2.03
2018-12-10T05:19:28.085Z,1.70
2018-12-10T05:21:57.023Z,1.47
2018-12-10T05:24:30.222Z,1.73
2018-12-10T05:27:01.175Z,1.57
2018-12-10T05:29:37.099Z,1.70
2018-12-10T05:32:06.287Z,1.73
2018-12-10T05:34:35.651Z,1.83
2018-12-10T05:37:04.841Z,2.10
2018-12-10T05:39:38.665Z,1.93
2018-12-10T05:42:07.671Z,1.93
2018-12-10T05:44:43.937Z,2.20
2018-12-10T05:47:13.102Z,1.93
2018-12-10T05:49:44.286Z,2.23
2018-12-10T05:52:13.255Z,1.90
2018-12-10T05:54:49.830Z,1.97
2018-12-10T05:57:18.867Z,2.10
2018-12-10T05:59:48.873Z,2.00
2018-12-10T06:02:18.457Z,2.17
2018-12-10T06:04:52.241Z,2.17
2018-12-10T06:07:21.176Z,2.03
2018-12-10T06:09:55.095Z,1.90
2018-12-10T06:12:24.259Z,2.00
2018-12-10T06:14:58.166Z,1.40
2018-12-10T06:17:27.343Z,1.73
2018-12-10T06:20:04.465Z,1.60
2018-12-10T06:22:33.427Z,1.87
2018-12-10T06:25:03.356Z,1.97
2018-12-10T06:27:32.316Z,2.40
2018-12-10T06:30:08.511Z,2.90
2018-12-10T06:32:37.476Z,3.57
2018-12-10T06:35:14.158Z,3.20
2018-12-10T06:37:43.665Z,3.47
2018-12-10T06:40:42.032Z,4.10
2018-12-10T06:43:15.625Z,4.17
2018-12-10T06:45:44.660Z,4.27
2018-12-10T06:48:17.327Z,4.90
2018-12-10T06:50:46.695Z,5.77
2018-12-10T06:53:19.474Z,6.03
2018-12-10T06:55:48.510Z,6.30
2018-12-10T06:58:21.247Z,6.00
2018-12-10T07:00:50.216Z,5.93
2018-12-10T07:03:26.463Z,5.60
2018-12-10T07:05:55.705Z,5.97
2018-12-10T07:08:27.889Z,5.60
2018-12-10T07:10:56.906Z,4.97
2018-12-10T07:13:28.484Z,6.23
2018-12-10T07:15:58.328Z,5.73
2018-12-10T07:18:34.391Z,4.57
2018-12-10T07:21:03.616Z,4.80
2018-12-10T07:23:33.869Z,2.90
2018-12-10T07:26:02.839Z,2.77
2018-12-10T07:28:37.905Z,2.50
2018-12-10T07:31:07.107Z,2.17
2018-12-10T07:33:39.128Z,2.33
2018-12-10T07:36:08.414Z,2.20
2018-12-10T07:38:45.342Z,2.60
2018-12-10T07:41:14.310Z,2.00
2018-12-10T07:43:44.096Z,2.17
2018-12-10T07:46:13.160Z,2.30
2018-12-10T07:48:50.537Z,2.43
2018-12-10T07:51:19.796Z,1.80
2018-12-10T07:53:52.304Z,2.63
2018-12-10T07:56:28.846Z,1.60
2018-12-10T07:58:53.793Z,2.87
2018-12-10T08:01:22.735Z,2.33
2018-12-10T08:03:59.313Z,2.70
2018-12-10T08:06:28.540Z,2.60
2018-12-10T08:08:59.011Z,2.37
2018-12-10T08:11:28.029Z,2.03
2018-12-10T08:14:03.627Z,2.17
2018-12-10T08:16:32.841Z,2.70
2018-12-10T08:19:05.598Z,2.17
2018-12-10T08:21:34.618Z,2.70
2018-12-10T08:24:08.419Z,2.83
2018-12-10T08:26:37.963Z,2.17
2018-12-10T08:29:13.810Z,1.90
2018-12-10T08:31:43.021Z,1.67
2018-12-10T08:34:15.077Z,2.43
2018-12-10T08:36:44.011Z,1.53
2018-12-10T08:39:16.354Z,1.80
2018-12-10T08:41:45.424Z,1.57
2018-12-10T08:44:20.333Z,2.10
2018-12-10T08:46:49.220Z,1.83
2018-12-10T08:49:21.411Z,1.90
2018-12-10T08:51:50.678Z,2.20
2018-12-10T08:54:27.041Z,2.20
2018-12-10T08:56:56.031Z,1.63
2018-12-10T08:59:26.312Z,1.80
2018-12-10T09:01:55.428Z,2.50
2018-12-10T09:04:28.597Z,1.90
2018-12-10T09:06:58.663Z,2.03
2018-12-10T09:09:34.984Z,2.33
2018-12-10T09:12:04.024Z,3.20
2018-12-10T09:14:34.443Z,2.10
2018-12-10T09:17:03.527Z,2.80
2018-12-10T09:19:39.705Z,1.73
2018-12-10T09:22:08.956Z,1.63
2018-12-10T09:24:39.377Z,1.93
2018-12-10T09:27:08.393Z,1.97
2018-12-10T09:29:41.885Z,1.53
2018-12-10T09:32:12.425Z,1.60
2018-12-10T09:34:49.207Z,1.33
2018-12-10T09:37:18.212Z,2.17
2018-12-10T09:39:47.420Z,1.80
2018-12-10T09:42:16.378Z,1.47
2018-12-10T09:44:50.198Z,1.30
2018-12-10T09:47:20.933Z,1.60
2018-12-10T09:49:54.007Z,1.47
2018-12-10T09:52:23.170Z,1.67
2018-12-10T09:54:57.230Z,1.60
2018-12-10T09:57:26.298Z,1.27
2018-12-10T10:00:02.653Z,1.30
2018-12-10T10:02:31.597Z,1.20
2018-12-10T10:05:03.957Z,1.40
2018-12-10T10:07:33.263Z,2.00
2018-12-10T10:10:08.194Z,1.93
2018-12-10T10:12:37.429Z,1.50
2018-12-10T10:15:13.706Z,1.40
2018-12-10T10:17:42.757Z,1.40
2018-12-10T10:20:13.760Z,2.13
2018-12-10T10:22:43.290Z,1.90
2018-12-10T10:25:16.475Z,2.57
2018-12-10T10:27:45.854Z,1.40
2018-12-10T10:30:18.527Z,1.90
2018-12-10T10:32:47.754Z,1.73
2018-12-10T10:35:23.106Z,2.00
2018-12-10T10:37:52.360Z,2.27
2018-12-10T10:40:25.016Z,2.20
2018-12-10T10:42:54.069Z,2.10
2018-12-10T10:45:34.471Z,1.97
2018-12-10T10:47:57.682Z,1.73
2018-12-10T10:50:29.787Z,2.00
2018-12-10T10:52:58.813Z,1.77
2018-12-10T10:55:31.236Z,2.17
2018-12-10T10:58:00.248Z,2.23
2018-12-10T11:00:38.071Z,2.10
2018-12-10T11:03:12.592Z,3.30
2018-12-10T11:05:41.631Z,2.90
2018-12-10T11:08:10.635Z,2.37
2018-12-10T11:10:39.601Z,1.97
2018-12-10T11:13:08.600Z,3.20
2018-12-10T11:15:40.558Z,2.30
2018-12-10T11:18:09.685Z,2.43
2018-12-10T11:20:45.343Z,2.27
2018-12-10T11:23:14.787Z,2.23
2018-12-10T11:25:47.982Z,2.37
2018-12-10T11:28:17.668Z,2.30
2018-12-10T11:30:50.028Z,1.80
2018-12-10T11:33:19.068Z,2.63
2018-12-10T11:35:54.559Z,2.20
2018-12-10T11:38:23.923Z,2.30
2018-12-10T11:40:56.241Z,2.30
2018-12-10T11:43:25.282Z,1.80
2018-12-10T11:46:01.705Z,2.13
2018-12-10T11:48:30.777Z,2.40
2018-12-10T11:51:02.859Z,1.70
2018-12-10T11:53:32.205Z,2.33
2018-12-10T11:56:08.267Z,1.73
2018-12-10T11:58:37.331Z,1.50
2018-12-10T12:01:09.546Z,2.43
2018-12-10T12:03:38.561Z,1.90
2018-12-10T12:06:12.546Z,1.47
2018-12-10T12:08:41.562Z,2.00
2018-12-10T12:11:14.031Z,2.40
2018-12-10T12:13:44.518Z,1.70
2018-12-10T12:16:17.487Z,1.60
2018-12-10T12:18:46.966Z,2.00
2018-12-10T12:21:20.321Z,2.57
2018-12-10T12:23:49.328Z,1.93
2018-12-10T12:26:21.730Z,1.47
2018-12-10T12:28:50.752Z,2.13
2018-12-10T12:31:23.683Z,2.30
2018-12-10T12:33:52.993Z,1.60
2018-12-10T12:36:25.887Z,2.03
2018-12-10T12:38:54.856Z,1.43
2018-12-10T12:41:32.002Z,1.70
2018-12-10T12:44:00.991Z,1.60
2018-12-10T12:46:31.175Z,1.83
2018-12-10T12:49:00.495Z,1.63
2018-12-10T12:51:33.556Z,1.73
2018-12-10T12:54:02.563Z,1.73
2018-12-10T12:56:38.897Z,1.63
2018-12-10T12:59:07.992Z,1.47
2018-12-10T13:01:40.513Z,1.20
2018-12-10T13:04:09.952Z,1.40
2018-12-10T13:06:42.400Z,1.37
2018-12-10T13:09:11.428Z,1.63
2018-12-10T13:11:47.866Z,2.00
2018-12-10T13:14:17.160Z,1.93
2018-12-10T13:16:49.981Z,1.70
2018-12-10T13:19:19.763Z,1.70
2018-12-10T13:21:50.876Z,1.93
2018-12-10T13:24:19.941Z,2.00
2018-12-10T13:26:54.295Z,2.37
2018-12-10T13:29:31.017Z,2.60
2018-12-10T13:31:59.463Z,3.03
2018-12-10T13:34:28.761Z,2.20
2018-12-10T13:37:01.504Z,2.30
2018-12-10T13:39:30.822Z,2.97
2018-12-10T13:42:03.783Z,2.90
2018-12-10T13:44:32.744Z,2.17
2018-12-10T13:47:09.186Z,2.30
2018-12-10T13:49:39.103Z,1.60
2018-12-10T13:52:11.280Z,1.60
2018-12-10T13:54:40.344Z,1.60
2018-12-10T13:57:17.893Z,1.00
2018-12-10T13:59:46.901Z,0.67
2018-12-10T14:02:18.211Z,0.90
2018-12-10T14:04:57.143Z,0.70
2018-12-10T14:07:26.228Z,0.90
2018-12-10T14:09:55.318Z,0.90
2018-12-10T14:12:24.352Z,0.70
2018-12-10T14:14:53.404Z,0.80
2018-12-10T14:17:24.279Z,1.30
2018-12-10T14:19:53.314Z,1.20
2018-12-10T14:22:30.413Z,1.17
2018-12-10T14:24:59.720Z,0.80
2018-12-10T14:27:32.599Z,1.00
2018-12-10T14:30:01.953Z,1.30
2018-12-10T14:32:33.091Z,0.93
2018-12-10T14:35:02.343Z,2.13
2018-12-10T14:37:33.329Z,0.97
2018-12-10T14:40:02.757Z,1.50
2018-12-10T14:42:53.846Z,1.80
2018-12-10T14:45:23.376Z,1.20
2018-12-10T14:50:27.412Z,1.03
2018-12-10T14:52:56.676Z,1.20
2018-12-10T14:55:25.776Z,1.00
2018-12-10T14:57:55.234Z,1.20
2018-12-10T15:00:26.165Z,1.00
2018-12-10T15:02:55.190Z,1.20
2018-12-10T15:05:24.265Z,1.13
2018-12-10T15:07:53.817Z,0.87
2018-12-10T15:10:23.345Z,0.87
2018-12-10T15:13:00.668Z,0.97
2018-12-10T15:15:30.524Z,0.90
2018-12-10T15:18:02.057Z,0.83
2018-12-10T15:20:31.982Z,0.70
2018-12-10T15:23:04.340Z,0.87
2018-12-10T15:25:33.686Z,0.80
2018-12-10T15:28:02.767Z,0.67
2018-12-10T15:30:32.083Z,1.07
2018-12-10T15:33:06.644Z,0.80
2018-12-10T15:35:35.673Z,1.20
2018-12-10T15:38:08.173Z,1.10
2018-12-10T15:40:37.205Z,0.90
2018-12-10T15:43:13.438Z,1.40
2018-12-10T15:45:42.482Z,0.90
2018-12-10T15:48:15.532Z,1.00
2018-12-10T15:50:45.018Z,1.50
2018-12-10T15:53:15.516Z,1.23
2018-12-10T15:55:44.564Z,1.20
2018-12-10T15:58:18.448Z,1.03
2018-12-10T16:00:47.561Z,1.50
2018-12-10T16:03:20.345Z,1.40
2018-12-10T16:06:05.434Z,1.37
2018-12-10T16:08:34.411Z,1.93
2018-12-10T16:11:11.985Z,0.90
2018-12-10T16:13:42.117Z,1.30
2018-12-10T16:16:11.188Z,1.00
2018-12-10T16:18:40.376Z,1.30
2018-12-10T16:21:09.833Z,0.93
2018-12-10T16:23:39.189Z,1.30
2018-12-10T16:26:08.317Z,2.03
2018-12-10T16:28:37.503Z,2.00
2018-12-10T16:31:07.508Z,1.60
2018-12-10T16:33:41.179Z,1.73
2018-12-10T16:36:11.338Z,1.77
2018-12-10T16:38:41.927Z,2.03
2018-12-10T16:41:12.628Z,1.80
2018-12-10T16:43:42.618Z,1.83
2018-12-10T16:46:13.624Z,1.83
2018-12-10T16:48:46.452Z,1.83
2018-12-10T16:51:17.349Z,1.53
2018-12-10T16:53:50.017Z,1.47
2018-12-10T16:56:19.696Z,1.60
2018-12-10T16:58:50.516Z,1.33
2018-12-10T17:01:19.740Z,1.37
2018-12-10T17:03:56.439Z,0.80
2018-12-10T17:06:25.912Z,1.00
2018-12-10T17:08:56.455Z,1.20
2018-12-10T17:11:25.506Z,0.97
2018-12-10T17:13:58.221Z,1.10
2018-12-10T17:16:28.129Z,0.70
2018-12-10T17:19:05.656Z,0.90
2018-12-10T17:21:35.877Z,1.47
2018-12-10T17:24:05.010Z,1.30
2018-12-10T17:26:35.223Z,0.90
2018-12-10T17:29:09.218Z,1.30
2018-12-10T17:31:38.679Z,1.00
2018-12-10T17:34:11.289Z,1.80
2018-12-10T17:36:40.571Z,1.40
2018-12-10T17:39:17.492Z,1.13
2018-12-10T17:41:47.574Z,1.30
2018-12-10T17:44:16.602Z,1.80
2018-12-10T17:46:45.620Z,1.03
2018-12-10T17:49:22.298Z,1.00
2018-12-10T17:51:51.439Z,1.60
2018-12-10T17:54:21.967Z,1.07
2018-12-10T17:56:51.201Z,1.60
2018-12-10T17:59:23.880Z,1.30
2018-12-10T18:01:53.348Z,1.67
2018-12-10T18:04:26.140Z,1.73
2018-12-10T18:06:55.931Z,1.70
2018-12-10T18:09:29.113Z,2.03
2018-12-10T18:11:59.004Z,1.97
2018-12-10T18:14:32.111Z,1.67
2018-12-10T18:17:02.623Z,1.90
2018-12-10T18:19:50.979Z,2.00
2018-12-10T18:22:22.919Z,1.80
2018-12-10T18:24:52.337Z,2.33
2018-12-10T18:27:21.607Z,1.33
2018-12-10T18:29:51.119Z,1.87
2018-12-10T18:32:20.626Z,1.57
2018-12-10T18:34:50.846Z,2.10
2018-12-10T18:37:20.599Z,1.63
2018-12-10T18:39:50.438Z,2.77
2018-12-10T18:42:19.595Z,2.00
2018-12-10T18:44:48.955Z,1.70
2018-12-10T18:47:19.037Z,2.50
2018-12-10T18:49:51.953Z,4.57
2018-12-10T18:52:22.343Z,1.50
2018-12-10T18:54:55.132Z,1.70
2018-12-10T18:57:25.650Z,1.73
2018-12-10T19:00:04.570Z,2.53
2018-12-10T19:02:34.856Z,3.07
2018-12-10T19:05:07.115Z,2.63
2018-12-10T19:07:36.719Z,3.27
2018-12-10T19:10:08.738Z,2.97
2018-12-10T19:12:38.247Z,2.03
2018-12-10T19:15:09.662Z,2.67
2018-12-10T19:17:39.149Z,3.13
2018-12-10T19:20:13.615Z,2.30
2018-12-10T19:22:40.860Z,2.27
2018-12-10T19:25:13.045Z,2.80
2018-12-10T19:27:42.206Z,2.33
2018-12-10T19:30:15.301Z,2.67
2018-12-10T19:32:45.549Z,2.70
2018-12-10T19:35:16.392Z,2.80
2018-12-10T19:37:45.750Z,3.77
2018-12-10T19:40:20.559Z,3.33
2018-12-10T19:42:49.708Z,3.53
2018-12-10T19:45:23.426Z,3.30
2018-12-10T19:47:52.791Z,2.30
2018-12-10T19:57:04.237Z,2.90
2018-12-10T19:59:33.697Z,2.53
2018-12-10T20:02:03.039Z,2.53
2018-12-10T20:04:32.277Z,2.67
2018-12-10T20:07:06.876Z,2.80
2018-12-10T20:09:36.481Z,2.27
2018-12-10T20:12:06.679Z,2.60
2018-12-10T20:14:36.167Z,2.07
2018-12-10T20:17:05.921Z,3.53
2018-12-10T20:19:38.930Z,2.27
2018-12-10T20:22:09.596Z,2.70
2018-12-10T20:24:42.477Z,2.30
2018-12-10T20:27:12.104Z,2.33
2018-12-10T20:29:44.725Z,2.80
2018-12-10T20:32:15.486Z,2.63
2018-12-10T20:34:48.099Z,3.23
2018-12-10T20:37:17.328Z,2.17
2018-12-10T20:39:50.632Z,2.50
2018-12-10T20:42:20.034Z,2.37
2018-12-10T20:44:57.507Z,2.37
2018-12-10T20:47:27.096Z,2.80
2018-12-10T20:49:57.172Z,2.80
2018-12-10T20:52:27.699Z,2.63
2018-12-10T20:54:59.819Z,3.03
2018-12-10T20:57:29.156Z,2.83
2018-12-10T21:00:02.295Z,3.70
2018-12-10T21:02:33.139Z,3.17
2018-12-10T21:05:06.089Z,3.23
2018-12-10T21:07:35.678Z,3.60
2018-12-10T21:10:09.279Z,2.87
2018-12-10T21:12:39.815Z,3.27
2018-12-10T21:15:12.488Z,3.60
2018-12-10T21:17:42.368Z,2.77
2018-12-10T21:20:15.633Z,3.40
2018-12-10T21:22:45.120Z,3.10
2018-12-10T21:26:47.232Z,3.57
2018-12-10T21:29:20.657Z,3.57
2018-12-10T21:31:50.416Z,2.90
2018-12-10T21:34:23.366Z,3.80
2018-12-10T21:36:52.943Z,3.33
2018-12-10T21:39:24.844Z,3.57
2018-12-10T21:41:54.749Z,3.50
2018-12-10T21:44:27.836Z,2.50
2018-12-10T21:46:59.071Z,3.03
2018-12-10T21:49:29.635Z,2.20
2018-12-10T21:51:58.953Z,4.60
2018-12-10T21:54:36.391Z,3.60
2018-12-10T21:57:06.031Z,3.90
2018-12-10T21:59:36.403Z,4.07
2018-12-10T22:02:06.335Z,3.03
2018-12-10T22:04:39.168Z,3.40
2018-12-10T22:07:08.630Z,3.53
2018-12-10T22:09:41.960Z,3.60
2018-12-10T22:12:13.034Z,2.57
2018-12-10T22:14:45.583Z,2.87
2018-12-10T22:17:15.689Z,2.57
2018-12-10T22:19:48.999Z,2.50
2018-12-10T22:22:19.012Z,3.30
2018-12-10T22:24:52.897Z,3.50
2018-12-10T22:27:22.578Z,3.10
2018-12-10T22:29:52.945Z,3.23
2018-12-10T22:32:22.537Z,2.73
2018-12-10T22:34:58.955Z,2.50
2018-12-10T22:37:28.118Z,2.50
2018-12-10T22:39:59.116Z,2.33
2018-12-10T22:42:28.590Z,2.70
2018-12-10T22:45:03.534Z,2.90
2018-12-10T22:47:34.132Z,2.80
2018-12-10T22:50:07.381Z,2.50
2018-12-10T22:52:38.756Z,1.70
2018-12-10T22:55:08.640Z,2.73
2018-12-10T22:57:37.936Z,1.70
2018-12-10T23:00:13.194Z,2.13
2018-12-10T23:02:43.133Z,3.47
2018-12-10T23:05:16.401Z,2.63
2018-12-10T23:07:47.089Z,2.70
2018-12-10T23:10:18.112Z,3.70
2018-12-10T23:12:47.760Z,5.57
2018-12-10T23:15:20.602Z,7.00
2018-12-10T23:17:50.436Z,3.10
2018-12-10T23:20:27.552Z,2.17
2018-12-10T23:22:56.876Z,2.50
2018-12-10T23:25:26.222Z,2.73
2018-12-10T23:27:55.557Z,2.57
2018-12-10T23:30:28.400Z,2.40
2018-12-10T23:32:57.950Z,2.17
2018-12-10T23:35:30.755Z,1.87
2018-12-10T23:38:00.163Z,2.67
2018-12-10T23:40:33.067Z,1.80
2018-12-10T23:43:07.756Z,1.80
2018-12-10T23:45:36.902Z,1.50
2018-12-10T23:48:05.992Z,1.70
2018-12-10T23:50:40.019Z,1.70
2018-12-10T23:53:09.113Z,2.17
2018-12-10T23:55:41.200Z,1.47
2018-12-10T23:58:10.250Z,1.67
